sensor_id;sensor_type;location;lat;lon;timestamp;P1;durP1;ratioP1;P2;durP2;ratioP2
76423;SDS011;65257;52.104;4.268;2023-05-10T00:01:20;36.42;;;18.95;;
76423;SDS011;65257;52.104;4.268;2023-05-10T00:03:49;31.08;;;19.35;;
76423;SDS011;65257;52.104;4.268;2023-05-10T00:06:14;36.15;;;19.85;;
76423;SDS011;65257;52.104;4.268;2023-05-10T00:08:39;40.17;;;20.75;;
76423;SDS011;65257;52.104;4.268;2023-05-10T00:11:05;46.72;;;21.40;;
76423;SDS011;65257;52.104;4.268;2023-05-10T00:13:30;40.75;;;22.30;;
76423;SDS011;65257;52.104;4.268;2023-05-10T00:16:01;42.75;;;22.30;;
76423;SDS011;65257;52.104;4.268;2023-05-10T00:18:29;44.78;;;23.20;;
76423;SDS011;65257;52.104;4.268;2023-05-10T00:20:55;49.45;;;25.40;;
76423;SDS011;65257;52.104;4.268;2023-05-10T00:23:20;43.70;;;21.45;;
76423;SDS011;65257;52.104;4.268;2023-05-10T00:25:48;42.92;;;22.60;;
76423;SDS011;65257;52.104;4.268;2023-05-10T00:28:14;50.65;;;25.60;;
76423;SDS011;65257;52.104;4.268;2023-05-10T00:30:40;51.60;;;24.52;;
76423;SDS011;65257;52.104;4.268;2023-05-10T00:33:05;48.42;;;23.23;;
76423;SDS011;65257;52.104;4.268;2023-05-10T00:35:34;50.25;;;24.42;;
76423;SDS011;65257;52.104;4.268;2023-05-10T00:37:59;46.60;;;20.27;;
76423;SDS011;65257;52.104;4.268;2023-05-10T00:40:28;45.38;;;22.55;;
76423;SDS011;65257;52.104;4.268;2023-05-10T00:42:56;47.60;;;21.77;;
76423;SDS011;65257;52.104;4.268;2023-05-10T00:45:22;49.50;;;21.80;;
76423;SDS011;65257;52.104;4.268;2023-05-10T00:47:48;35.00;;;17.10;;
76423;SDS011;65257;52.104;4.268;2023-05-10T00:50:14;37.47;;;19.23;;
76423;SDS011;65257;52.104;4.268;2023-05-10T00:52:49;43.22;;;20.15;;
76423;SDS011;65257;52.104;4.268;2023-05-10T00:55:15;44.70;;;22.35;;
76423;SDS011;65257;52.104;4.268;2023-05-10T00:57:41;43.38;;;20.65;;
76423;SDS011;65257;52.104;4.268;2023-05-10T01:00:10;50.83;;;21.95;;
76423;SDS011;65257;52.104;4.268;2023-05-10T01:02:37;47.40;;;22.58;;
76423;SDS011;65257;52.104;4.268;2023-05-10T01:05:06;41.90;;;20.08;;
76423;SDS011;65257;52.104;4.268;2023-05-10T01:07:33;42.50;;;18.40;;
76423;SDS011;65257;52.104;4.268;2023-05-10T01:10:09;52.70;;;23.67;;
76423;SDS011;65257;52.104;4.268;2023-05-10T01:15:08;48.58;;;23.25;;
76423;SDS011;65257;52.104;4.268;2023-05-10T01:17:35;48.67;;;22.20;;
76423;SDS011;65257;52.104;4.268;2023-05-10T01:20:10;45.55;;;20.05;;
76423;SDS011;65257;52.104;4.268;2023-05-10T01:33:56;41.45;;;21.27;;
76423;SDS011;65257;52.104;4.268;2023-05-10T01:39:24;34.22;;;16.70;;
76423;SDS011;65257;52.104;4.268;2023-05-10T01:44:54;32.15;;;14.80;;
76423;SDS011;65257;52.104;4.268;2023-05-10T01:47:40;29.08;;;16.08;;
76423;SDS011;65257;52.104;4.268;2023-05-10T01:50:10;32.05;;;18.42;;
76423;SDS011;65257;52.104;4.268;2023-05-10T01:52:44;32.25;;;14.40;;
76423;SDS011;65257;52.104;4.268;2023-05-10T01:55:18;31.38;;;14.77;;
76423;SDS011;65257;52.104;4.268;2023-05-10T01:57:51;31.52;;;16.58;;
76423;SDS011;65257;52.104;4.268;2023-05-10T02:00:28;36.08;;;17.33;;
76423;SDS011;65257;52.104;4.268;2023-05-10T02:03:04;32.70;;;13.95;;
76423;SDS011;65257;52.104;4.268;2023-05-10T02:05:33;30.27;;;15.43;;
76423;SDS011;65257;52.104;4.268;2023-05-10T02:08:07;27.20;;;14.63;;
76423;SDS011;65257;52.104;4.268;2023-05-10T02:10:34;29.85;;;16.10;;
76423;SDS011;65257;52.104;4.268;2023-05-10T02:13:04;27.63;;;12.82;;
76423;SDS011;65257;52.104;4.268;2023-05-10T02:15:35;29.25;;;14.13;;
76423;SDS011;65257;52.104;4.268;2023-05-10T02:18:16;26.35;;;13.65;;
76423;SDS011;65257;52.104;4.268;2023-05-10T02:20:44;30.70;;;16.65;;
76423;SDS011;65257;52.104;4.268;2023-05-10T02:23:11;29.23;;;15.80;;
76423;SDS011;65257;52.104;4.268;2023-05-10T02:25:38;33.60;;;19.38;;
76423;SDS011;65257;52.104;4.268;2023-05-10T02:28:07;46.90;;;22.20;;
76423;SDS011;65257;52.104;4.268;2023-05-10T02:30:35;32.42;;;19.75;;
76423;SDS011;65257;52.104;4.268;2023-05-10T02:33:05;35.95;;;17.45;;
76423;SDS011;65257;52.104;4.268;2023-05-10T02:35:31;49.70;;;25.35;;
76423;SDS011;65257;52.104;4.268;2023-05-10T02:37:58;51.22;;;27.50;;
76423;SDS011;65257;52.104;4.268;2023-05-10T02:43:05;47.53;;;21.90;;
76423;SDS011;65257;52.104;4.268;2023-05-10T02:45:34;53.22;;;24.83;;
76423;SDS011;65257;52.104;4.268;2023-05-10T02:48:01;56.50;;;23.58;;
76423;SDS011;65257;52.104;4.268;2023-05-10T02:50:27;51.53;;;24.55;;
76423;SDS011;65257;52.104;4.268;2023-05-10T02:52:54;52.08;;;23.70;;
76423;SDS011;65257;52.104;4.268;2023-05-10T02:55:25;51.63;;;21.45;;
76423;SDS011;65257;52.104;4.268;2023-05-10T02:58:03;62.30;;;24.30;;
76423;SDS011;65257;52.104;4.268;2023-05-10T03:00:28;52.45;;;23.38;;
76423;SDS011;65257;52.104;4.268;2023-05-10T03:02:54;52.60;;;23.50;;
76423;SDS011;65257;52.104;4.268;2023-05-10T03:05:23;49.13;;;21.02;;
76423;SDS011;65257;52.104;4.268;2023-05-10T03:07:48;47.05;;;20.02;;
76423;SDS011;65257;52.104;4.268;2023-05-10T03:10:14;43.40;;;20.05;;
76423;SDS011;65257;52.104;4.268;2023-05-10T03:15:31;51.38;;;22.30;;
76423;SDS011;65257;52.104;4.268;2023-05-10T03:20:33;52.65;;;24.50;;
76423;SDS011;65257;52.104;4.268;2023-05-10T03:23:21;49.28;;;21.83;;
76423;SDS011;65257;52.104;4.268;2023-05-10T03:25:52;54.72;;;23.73;;
76423;SDS011;65257;52.104;4.268;2023-05-10T03:28:19;54.80;;;19.20;;
76423;SDS011;65257;52.104;4.268;2023-05-10T03:30:45;90.18;;;21.50;;
76423;SDS011;65257;52.104;4.268;2023-05-10T03:33:11;92.47;;;19.75;;
76423;SDS011;65257;52.104;4.268;2023-05-10T03:35:38;102.40;;;17.30;;
76423;SDS011;65257;52.104;4.268;2023-05-10T03:38:06;113.68;;;16.38;;
76423;SDS011;65257;52.104;4.268;2023-05-10T03:40:34;127.95;;;13.57;;
76423;SDS011;65257;52.104;4.268;2023-05-10T03:43:00;137.23;;;13.73;;
76423;SDS011;65257;52.104;4.268;2023-05-10T03:45:29;133.52;;;11.35;;
76423;SDS011;65257;52.104;4.268;2023-05-10T03:47:57;121.75;;;11.65;;
76423;SDS011;65257;52.104;4.268;2023-05-10T03:50:23;87.82;;;10.65;;
76423;SDS011;65257;52.104;4.268;2023-05-10T03:52:49;158.43;;;14.63;;
76423;SDS011;65257;52.104;4.268;2023-05-10T03:55:15;97.13;;;11.63;;
76423;SDS011;65257;52.104;4.268;2023-05-10T03:57:43;94.72;;;12.15;;
76423;SDS011;65257;52.104;4.268;2023-05-10T04:00:14;82.97;;;8.73;;
76423;SDS011;65257;52.104;4.268;2023-05-10T04:02:40;120.25;;;9.60;;
76423;SDS011;65257;52.104;4.268;2023-05-10T04:05:08;91.57;;;8.90;;
76423;SDS011;65257;52.104;4.268;2023-05-10T04:07:37;114.28;;;11.15;;
76423;SDS011;65257;52.104;4.268;2023-05-10T04:10:04;88.13;;;9.25;;
76423;SDS011;65257;52.104;4.268;2023-05-10T04:12:51;119.28;;;12.25;;
76423;SDS011;65257;52.104;4.268;2023-05-10T04:15:22;102.25;;;11.65;;
76423;SDS011;65257;52.104;4.268;2023-05-10T04:17:47;84.50;;;10.05;;
76423;SDS011;65257;52.104;4.268;2023-05-10T04:20:13;111.00;;;10.02;;
76423;SDS011;65257;52.104;4.268;2023-05-10T04:22:39;103.32;;;10.38;;
76423;SDS011;65257;52.104;4.268;2023-05-10T04:25:08;88.97;;;8.90;;
76423;SDS011;65257;52.104;4.268;2023-05-10T04:27:36;60.13;;;7.72;;
76423;SDS011;65257;52.104;4.268;2023-05-10T04:30:03;56.63;;;7.70;;
76423;SDS011;65257;52.104;4.268;2023-05-10T04:32:30;57.72;;;7.10;;
76423;SDS011;65257;52.104;4.268;2023-05-10T04:34:56;71.47;;;7.60;;
76423;SDS011;65257;52.104;4.268;2023-05-10T04:37:21;56.47;;;9.18;;
76423;SDS011;65257;52.104;4.268;2023-05-10T04:39:50;31.58;;;9.35;;
76423;SDS011;65257;52.104;4.268;2023-05-10T04:42:16;23.52;;;9.70;;
76423;SDS011;65257;52.104;4.268;2023-05-10T04:44:41;17.10;;;7.93;;
76423;SDS011;65257;52.104;4.268;2023-05-10T04:47:13;13.90;;;6.05;;
76423;SDS011;65257;52.104;4.268;2023-05-10T04:49:38;13.85;;;6.32;;
76423;SDS011;65257;52.104;4.268;2023-05-10T04:52:10;13.93;;;5.53;;
76423;SDS011;65257;52.104;4.268;2023-05-10T04:54:40;16.42;;;6.20;;
76423;SDS011;65257;52.104;4.268;2023-05-10T04:57:06;10.45;;;5.75;;
76423;SDS011;65257;52.104;4.268;2023-05-10T04:59:31;8.80;;;4.57;;
76423;SDS011;65257;52.104;4.268;2023-05-10T05:01:57;7.53;;;4.55;;
76423;SDS011;65257;52.104;4.268;2023-05-10T05:04:25;8.45;;;4.18;;
76423;SDS011;65257;52.104;4.268;2023-05-10T05:06:51;6.63;;;3.88;;
76423;SDS011;65257;52.104;4.268;2023-05-10T05:09:20;6.72;;;4.35;;
76423;SDS011;65257;52.104;4.268;2023-05-10T05:11:45;6.20;;;3.67;;
76423;SDS011;65257;52.104;4.268;2023-05-10T05:14:12;8.98;;;4.45;;
76423;SDS011;65257;52.104;4.268;2023-05-10T05:16:37;6.57;;;4.05;;
76423;SDS011;65257;52.104;4.268;2023-05-10T05:19:03;7.72;;;4.25;;
76423;SDS011;65257;52.104;4.268;2023-05-10T05:21:38;6.45;;;3.80;;
76423;SDS011;65257;52.104;4.268;2023-05-10T05:24:08;7.70;;;4.13;;
76423;SDS011;65257;52.104;4.268;2023-05-10T05:26:35;7.13;;;3.97;;
76423;SDS011;65257;52.104;4.268;2023-05-10T05:29:04;6.63;;;3.95;;
76423;SDS011;65257;52.104;4.268;2023-05-10T05:31:30;8.05;;;4.95;;
76423;SDS011;65257;52.104;4.268;2023-05-10T05:33:55;8.15;;;4.85;;
76423;SDS011;65257;52.104;4.268;2023-05-10T05:36:35;9.15;;;5.10;;
76423;SDS011;65257;52.104;4.268;2023-05-10T05:39:07;10.88;;;6.40;;
76423;SDS011;65257;52.104;4.268;2023-05-10T05:41:36;11.75;;;6.38;;
76423;SDS011;65257;52.104;4.268;2023-05-10T05:44:04;12.40;;;6.53;;
76423;SDS011;65257;52.104;4.268;2023-05-10T05:46:30;13.25;;;5.80;;
76423;SDS011;65257;52.104;4.268;2023-05-10T05:48:56;10.27;;;5.63;;
76423;SDS011;65257;52.104;4.268;2023-05-10T05:51:25;13.60;;;7.32;;
76423;SDS011;65257;52.104;4.268;2023-05-10T05:53:50;14.00;;;7.55;;
76423;SDS011;65257;52.104;4.268;2023-05-10T05:56:16;17.73;;;7.95;;
76423;SDS011;65257;52.104;4.268;2023-05-10T05:58:42;21.02;;;8.70;;
76423;SDS011;65257;52.104;4.268;2023-05-10T06:01:08;19.55;;;9.70;;
76423;SDS011;65257;52.104;4.268;2023-05-10T06:03:46;25.23;;;9.43;;
76423;SDS011;65257;52.104;4.268;2023-05-10T06:06:34;20.63;;;8.25;;
76423;SDS011;65257;52.104;4.268;2023-05-10T06:09:02;19.77;;;8.35;;
76423;SDS011;65257;52.104;4.268;2023-05-10T06:11:28;17.80;;;7.25;;
76423;SDS011;65257;52.104;4.268;2023-05-10T06:14:00;18.08;;;7.93;;
76423;SDS011;65257;52.104;4.268;2023-05-10T06:16:29;17.45;;;7.35;;
76423;SDS011;65257;52.104;4.268;2023-05-10T06:18:55;21.50;;;7.43;;
76423;SDS011;65257;52.104;4.268;2023-05-10T06:21:20;16.50;;;7.40;;
76423;SDS011;65257;52.104;4.268;2023-05-10T06:23:47;14.60;;;7.63;;
76423;SDS011;65257;52.104;4.268;2023-05-10T06:26:12;14.07;;;6.82;;
76423;SDS011;65257;52.104;4.268;2023-05-10T06:28:42;15.98;;;7.13;;
76423;SDS011;65257;52.104;4.268;2023-05-10T06:31:13;17.60;;;7.43;;
76423;SDS011;65257;52.104;4.268;2023-05-10T06:33:39;22.98;;;8.57;;
76423;SDS011;65257;52.104;4.268;2023-05-10T06:36:04;17.00;;;8.38;;
76423;SDS011;65257;52.104;4.268;2023-05-10T06:38:30;19.15;;;7.85;;
76423;SDS011;65257;52.104;4.268;2023-05-10T06:40:56;21.17;;;9.18;;
76423;SDS011;65257;52.104;4.268;2023-05-10T06:43:25;17.13;;;7.43;;
76423;SDS011;65257;52.104;4.268;2023-05-10T06:45:51;15.00;;;8.60;;
76423;SDS011;65257;52.104;4.268;2023-05-10T06:48:19;16.95;;;6.93;;
76423;SDS011;65257;52.104;4.268;2023-05-10T06:50:44;21.38;;;7.82;;
76423;SDS011;65257;52.104;4.268;2023-05-10T06:53:10;14.35;;;7.30;;
76423;SDS011;65257;52.104;4.268;2023-05-10T06:55:37;16.65;;;8.95;;
76423;SDS011;65257;52.104;4.268;2023-05-10T06:58:04;16.42;;;7.43;;
76423;SDS011;65257;52.104;4.268;2023-05-10T07:00:31;14.15;;;7.15;;
76423;SDS011;65257;52.104;4.268;2023-05-10T07:02:59;10.52;;;6.60;;
76423;SDS011;65257;52.104;4.268;2023-05-10T07:05:24;13.38;;;7.45;;
76423;SDS011;65257;52.104;4.268;2023-05-10T07:07:54;16.77;;;7.25;;
76423;SDS011;65257;52.104;4.268;2023-05-10T07:10:20;10.55;;;5.60;;
76423;SDS011;65257;52.104;4.268;2023-05-10T07:12:45;10.45;;;5.10;;
76423;SDS011;65257;52.104;4.268;2023-05-10T07:15:12;8.90;;;4.93;;
76423;SDS011;65257;52.104;4.268;2023-05-10T07:17:38;7.38;;;4.18;;
76423;SDS011;65257;52.104;4.268;2023-05-10T07:20:05;8.55;;;4.18;;
76423;SDS011;65257;52.104;4.268;2023-05-10T07:22:35;7.45;;;4.13;;
76423;SDS011;65257;52.104;4.268;2023-05-10T07:25:09;7.72;;;4.15;;
76423;SDS011;65257;52.104;4.268;2023-05-10T07:27:34;8.13;;;4.15;;
76423;SDS011;65257;52.104;4.268;2023-05-10T07:30:00;9.05;;;3.88;;
76423;SDS011;65257;52.104;4.268;2023-05-10T07:32:26;7.25;;;4.20;;
76423;SDS011;65257;52.104;4.268;2023-05-10T07:34:52;7.72;;;4.13;;
76423;SDS011;65257;52.104;4.268;2023-05-10T07:37:17;6.18;;;3.60;;
76423;SDS011;65257;52.104;4.268;2023-05-10T07:39:46;7.20;;;3.97;;
76423;SDS011;65257;52.104;4.268;2023-05-10T07:42:12;8.25;;;3.80;;
76423;SDS011;65257;52.104;4.268;2023-05-10T07:44:37;8.10;;;3.90;;
76423;SDS011;65257;52.104;4.268;2023-05-10T07:47:03;8.10;;;3.72;;
76423;SDS011;65257;52.104;4.268;2023-05-10T07:49:28;5.15;;;3.10;;
76423;SDS011;65257;52.104;4.268;2023-05-10T07:51:54;5.82;;;2.92;;
76423;SDS011;65257;52.104;4.268;2023-05-10T07:54:19;9.02;;;4.28;;
76423;SDS011;65257;52.104;4.268;2023-05-10T07:56:44;11.75;;;4.97;;
76423;SDS011;65257;52.104;4.268;2023-05-10T07:59:15;9.93;;;5.53;;
76423;SDS011;65257;52.104;4.268;2023-05-10T08:01:58;11.32;;;6.13;;
76423;SDS011;65257;52.104;4.268;2023-05-10T08:04:23;10.00;;;5.90;;
76423;SDS011;65257;52.104;4.268;2023-05-10T08:06:49;10.80;;;6.45;;
76423;SDS011;65257;52.104;4.268;2023-05-10T08:09:14;14.82;;;6.55;;
76423;SDS011;65257;52.104;4.268;2023-05-10T08:11:51;13.02;;;7.03;;
76423;SDS011;65257;52.104;4.268;2023-05-10T08:14:17;13.30;;;6.93;;
76423;SDS011;65257;52.104;4.268;2023-05-10T08:16:43;15.38;;;7.80;;
76423;SDS011;65257;52.104;4.268;2023-05-10T08:19:08;12.27;;;6.78;;
76423;SDS011;65257;52.104;4.268;2023-05-10T08:21:43;11.63;;;6.43;;
76423;SDS011;65257;52.104;4.268;2023-05-10T08:24:11;13.23;;;6.38;;
76423;SDS011;65257;52.104;4.268;2023-05-10T08:26:37;11.43;;;5.80;;
76423;SDS011;65257;52.104;4.268;2023-05-10T08:29:19;12.90;;;6.30;;
76423;SDS011;65257;52.104;4.268;2023-05-10T08:31:44;11.73;;;6.25;;
76423;SDS011;65257;52.104;4.268;2023-05-10T08:34:10;13.80;;;6.03;;
76423;SDS011;65257;52.104;4.268;2023-05-10T08:36:35;12.18;;;6.00;;
76423;SDS011;65257;52.104;4.268;2023-05-10T08:39:01;12.40;;;5.45;;
76423;SDS011;65257;52.104;4.268;2023-05-10T08:41:27;10.45;;;5.25;;
76423;SDS011;65257;52.104;4.268;2023-05-10T08:43:55;8.43;;;4.93;;
76423;SDS011;65257;52.104;4.268;2023-05-10T08:46:21;16.98;;;5.53;;
76423;SDS011;65257;52.104;4.268;2023-05-10T08:48:49;11.20;;;4.93;;
76423;SDS011;65257;52.104;4.268;2023-05-10T08:51:22;11.77;;;4.55;;
76423;SDS011;65257;52.104;4.268;2023-05-10T08:53:54;12.60;;;4.90;;
76423;SDS011;65257;52.104;4.268;2023-05-10T08:56:24;9.57;;;4.70;;
76423;SDS011;65257;52.104;4.268;2023-05-10T08:58:50;9.10;;;4.57;;
76423;SDS011;65257;52.104;4.268;2023-05-10T09:01:16;8.95;;;4.22;;
76423;SDS011;65257;52.104;4.268;2023-05-10T09:03:45;10.00;;;5.18;;
76423;SDS011;65257;52.104;4.268;2023-05-10T09:06:12;6.82;;;3.75;;
76423;SDS011;65257;52.104;4.268;2023-05-10T09:08:45;11.85;;;4.25;;
76423;SDS011;65257;52.104;4.268;2023-05-10T09:11:11;8.15;;;4.40;;
76423;SDS011;65257;52.104;4.268;2023-05-10T09:13:37;7.50;;;3.55;;
76423;SDS011;65257;52.104;4.268;2023-05-10T09:16:03;10.07;;;4.53;;
76423;SDS011;65257;52.104;4.268;2023-05-10T09:18:32;9.02;;;3.60;;
76423;SDS011;65257;52.104;4.268;2023-05-10T09:21:01;7.68;;;4.07;;
76423;SDS011;65257;52.104;4.268;2023-05-10T09:23:31;8.85;;;4.18;;
76423;SDS011;65257;52.104;4.268;2023-05-10T09:26:04;8.57;;;3.60;;
76423;SDS011;65257;52.104;4.268;2023-05-10T09:29:12;8.02;;;3.40;;
76423;SDS011;65257;52.104;4.268;2023-05-10T09:31:20;5.40;;;2.72;;
76423;SDS011;65257;52.104;4.268;2023-05-10T09:33:47;5.80;;;3.15;;
76423;SDS011;65257;52.104;4.268;2023-05-10T09:36:14;6.97;;;3.22;;
76423;SDS011;65257;52.104;4.268;2023-05-10T09:38:47;6.50;;;3.45;;
76423;SDS011;65257;52.104;4.268;2023-05-10T09:41:17;7.03;;;3.88;;
76423;SDS011;65257;52.104;4.268;2023-05-10T09:43:54;7.22;;;3.90;;
76423;SDS011;65257;52.104;4.268;2023-05-10T09:46:24;9.10;;;3.72;;
76423;SDS011;65257;52.104;4.268;2023-05-10T09:48:49;9.10;;;3.67;;
76423;SDS011;65257;52.104;4.268;2023-05-10T09:51:22;7.78;;;3.40;;
76423;SDS011;65257;52.104;4.268;2023-05-10T09:54:08;6.53;;;3.20;;
76423;SDS011;65257;52.104;4.268;2023-05-10T09:59:02;8.60;;;3.67;;
76423;SDS011;65257;52.104;4.268;2023-05-10T10:01:28;8.93;;;3.72;;
76423;SDS011;65257;52.104;4.268;2023-05-10T10:03:54;7.72;;;4.22;;
76423;SDS011;65257;52.104;4.268;2023-05-10T10:06:23;9.70;;;4.13;;
76423;SDS011;65257;52.104;4.268;2023-05-10T10:08:49;11.27;;;5.10;;
76423;SDS011;65257;52.104;4.268;2023-05-10T10:11:15;9.68;;;4.32;;
76423;SDS011;65257;52.104;4.268;2023-05-10T10:13:41;10.23;;;4.20;;
76423;SDS011;65257;52.104;4.268;2023-05-10T10:16:07;12.13;;;4.15;;
76423;SDS011;65257;52.104;4.268;2023-05-10T10:18:34;11.48;;;4.13;;
76423;SDS011;65257;52.104;4.268;2023-05-10T10:21:13;9.77;;;5.13;;
76423;SDS011;65257;52.104;4.268;2023-05-10T10:23:38;11.55;;;4.65;;
76423;SDS011;65257;52.104;4.268;2023-05-10T10:26:14;10.57;;;5.63;;
76423;SDS011;65257;52.104;4.268;2023-05-10T10:34:17;9.60;;;4.55;;
76423;SDS011;65257;52.104;4.268;2023-05-10T10:36:55;9.13;;;5.32;;
76423;SDS011;65257;52.104;4.268;2023-05-10T10:39:24;10.65;;;5.10;;
76423;SDS011;65257;52.104;4.268;2023-05-10T10:41:52;11.52;;;5.18;;
76423;SDS011;65257;52.104;4.268;2023-05-10T10:52:35;9.73;;;5.32;;
76423;SDS011;65257;52.104;4.268;2023-05-10T10:55:12;11.27;;;4.93;;
76423;SDS011;65257;52.104;4.268;2023-05-10T10:57:51;10.98;;;4.80;;
76423;SDS011;65257;52.104;4.268;2023-05-10T11:03:18;19.90;;;5.70;;
76423;SDS011;65257;52.104;4.268;2023-05-10T11:05:46;14.05;;;5.38;;
76423;SDS011;65257;52.104;4.268;2023-05-10T11:08:27;12.38;;;5.43;;
76423;SDS011;65257;52.104;4.268;2023-05-10T11:11:16;12.98;;;4.93;;
76423;SDS011;65257;52.104;4.268;2023-05-10T11:13:43;11.88;;;5.00;;
76423;SDS011;65257;52.104;4.268;2023-05-10T11:16:17;13.50;;;5.15;;
76423;SDS011;65257;52.104;4.268;2023-05-10T11:19:03;11.60;;;5.57;;
76423;SDS011;65257;52.104;4.268;2023-05-10T11:21:34;10.75;;;6.05;;
76423;SDS011;65257;52.104;4.268;2023-05-10T11:26:38;10.65;;;5.57;;
76423;SDS011;65257;52.104;4.268;2023-05-10T11:29:04;16.48;;;6.00;;
76423;SDS011;65257;52.104;4.268;2023-05-10T11:31:29;11.73;;;5.15;;
76423;SDS011;65257;52.104;4.268;2023-05-10T11:33:59;10.40;;;4.60;;
76423;SDS011;65257;52.104;4.268;2023-05-10T11:36:29;15.75;;;6.07;;
76423;SDS011;65257;52.104;4.268;2023-05-10T11:38:58;12.30;;;5.28;;
76423;SDS011;65257;52.104;4.268;2023-05-10T11:41:24;14.75;;;5.20;;
76423;SDS011;65257;52.104;4.268;2023-05-10T11:43:54;12.25;;;5.43;;
76423;SDS011;65257;52.104;4.268;2023-05-10T11:46:20;14.30;;;5.25;;
76423;SDS011;65257;52.104;4.268;2023-05-10T11:48:52;12.10;;;4.80;;
76423;SDS011;65257;52.104;4.268;2023-05-10T11:51:29;16.08;;;5.38;;
76423;SDS011;65257;52.104;4.268;2023-05-10T11:53:59;16.85;;;5.45;;
76423;SDS011;65257;52.104;4.268;2023-05-10T11:56:24;14.52;;;5.32;;
76423;SDS011;65257;52.104;4.268;2023-05-10T11:59:00;17.63;;;6.45;;
76423;SDS011;65257;52.104;4.268;2023-05-10T12:01:27;18.08;;;5.78;;
76423;SDS011;65257;52.104;4.268;2023-05-10T12:03:55;21.77;;;6.35;;
76423;SDS011;65257;52.104;4.268;2023-05-10T12:08:54;19.85;;;6.88;;
76423;SDS011;65257;52.104;4.268;2023-05-10T12:11:20;16.40;;;6.75;;
76423;SDS011;65257;52.104;4.268;2023-05-10T12:13:53;17.95;;;7.03;;
76423;SDS011;65257;52.104;4.268;2023-05-10T12:16:19;17.05;;;7.40;;
76423;SDS011;65257;52.104;4.268;2023-05-10T12:18:52;20.17;;;8.45;;
76423;SDS011;65257;52.104;4.268;2023-05-10T12:21:22;19.08;;;6.65;;
76423;SDS011;65257;52.104;4.268;2023-05-10T12:24:09;18.13;;;6.50;;
76423;SDS011;65257;52.104;4.268;2023-05-10T12:26:38;14.02;;;5.97;;
76423;SDS011;65257;52.104;4.268;2023-05-10T12:29:14;18.80;;;6.80;;
76423;SDS011;65257;52.104;4.268;2023-05-10T12:31:51;20.05;;;7.60;;
76423;SDS011;65257;52.104;4.268;2023-05-10T12:37:06;20.13;;;6.22;;
76423;SDS011;65257;52.104;4.268;2023-05-10T12:39:38;17.50;;;6.25;;
76423;SDS011;65257;52.104;4.268;2023-05-10T12:42:05;15.70;;;5.95;;
76423;SDS011;65257;52.104;4.268;2023-05-10T12:44:35;14.85;;;6.15;;
76423;SDS011;65257;52.104;4.268;2023-05-10T12:47:00;22.77;;;7.00;;
76423;SDS011;65257;52.104;4.268;2023-05-10T12:49:32;13.63;;;5.90;;
76423;SDS011;65257;52.104;4.268;2023-05-10T12:51:57;14.05;;;6.20;;
76423;SDS011;65257;52.104;4.268;2023-05-10T12:54:23;15.50;;;6.30;;
76423;SDS011;65257;52.104;4.268;2023-05-10T12:56:48;12.60;;;5.65;;
76423;SDS011;65257;52.104;4.268;2023-05-10T12:59:14;15.35;;;7.72;;
76423;SDS011;65257;52.104;4.268;2023-05-10T13:01:39;14.57;;;7.90;;
76423;SDS011;65257;52.104;4.268;2023-05-10T13:04:08;17.30;;;7.38;;
76423;SDS011;65257;52.104;4.268;2023-05-10T13:06:33;15.73;;;7.20;;
76423;SDS011;65257;52.104;4.268;2023-05-10T13:09:00;15.77;;;6.97;;
76423;SDS011;65257;52.104;4.268;2023-05-10T13:11:26;13.93;;;6.43;;
76423;SDS011;65257;52.104;4.268;2023-05-10T13:13:52;10.27;;;5.22;;
76423;SDS011;65257;52.104;4.268;2023-05-10T13:16:19;12.18;;;4.97;;
76423;SDS011;65257;52.104;4.268;2023-05-10T13:18:55;10.73;;;5.18;;
76423;SDS011;65257;52.104;4.268;2023-05-10T13:21:22;9.77;;;4.65;;
76423;SDS011;65257;52.104;4.268;2023-05-10T13:23:50;13.40;;;4.40;;
76423;SDS011;65257;52.104;4.268;2023-05-10T13:26:19;13.55;;;5.78;;
76423;SDS011;65257;52.104;4.268;2023-05-10T13:28:44;11.80;;;4.82;;
76423;SDS011;65257;52.104;4.268;2023-05-10T13:31:10;12.65;;;5.72;;
76423;SDS011;65257;52.104;4.268;2023-05-10T13:33:36;11.45;;;5.88;;
76423;SDS011;65257;52.104;4.268;2023-05-10T13:36:05;11.50;;;5.32;;
76423;SDS011;65257;52.104;4.268;2023-05-10T13:38:31;11.82;;;4.72;;
76423;SDS011;65257;52.104;4.268;2023-05-10T13:40:59;10.55;;;4.40;;
76423;SDS011;65257;52.104;4.268;2023-05-10T13:43:25;10.10;;;4.53;;
76423;SDS011;65257;52.104;4.268;2023-05-10T13:45:50;10.77;;;4.57;;
76423;SDS011;65257;52.104;4.268;2023-05-10T13:48:17;9.07;;;4.95;;
76423;SDS011;65257;52.104;4.268;2023-05-10T13:50:42;10.50;;;4.75;;
76423;SDS011;65257;52.104;4.268;2023-05-10T13:53:08;9.32;;;4.72;;
76423;SDS011;65257;52.104;4.268;2023-05-10T13:55:34;10.73;;;4.47;;
76423;SDS011;65257;52.104;4.268;2023-05-10T13:57:59;10.45;;;4.95;;
76423;SDS011;65257;52.104;4.268;2023-05-10T14:00:25;10.18;;;5.68;;
76423;SDS011;65257;52.104;4.268;2023-05-10T14:02:54;13.18;;;4.28;;
76423;SDS011;65257;52.104;4.268;2023-05-10T14:05:22;12.68;;;4.93;;
76423;SDS011;65257;52.104;4.268;2023-05-10T14:07:48;11.25;;;4.43;;
76423;SDS011;65257;52.104;4.268;2023-05-10T14:10:15;11.23;;;4.82;;
76423;SDS011;65257;52.104;4.268;2023-05-10T14:12:50;10.85;;;4.60;;
76423;SDS011;65257;52.104;4.268;2023-05-10T14:15:18;10.93;;;4.93;;
76423;SDS011;65257;52.104;4.268;2023-05-10T14:17:43;11.27;;;5.28;;
76423;SDS011;65257;52.104;4.268;2023-05-10T14:20:15;11.02;;;4.88;;
76423;SDS011;65257;52.104;4.268;2023-05-10T14:22:40;9.82;;;5.07;;
76423;SDS011;65257;52.104;4.268;2023-05-10T14:25:06;10.18;;;5.30;;
76423;SDS011;65257;52.104;4.268;2023-05-10T14:27:33;10.23;;;5.13;;
76423;SDS011;65257;52.104;4.268;2023-05-10T14:30:05;11.07;;;4.45;;
76423;SDS011;65257;52.104;4.268;2023-05-10T14:32:32;9.13;;;4.90;;
76423;SDS011;65257;52.104;4.268;2023-05-10T14:34:59;11.50;;;5.70;;
76423;SDS011;65257;52.104;4.268;2023-05-10T14:37:30;10.48;;;5.15;;
76423;SDS011;65257;52.104;4.268;2023-05-10T14:39:56;12.38;;;5.43;;
76423;SDS011;65257;52.104;4.268;2023-05-10T14:42:29;9.07;;;4.68;;
76423;SDS011;65257;52.104;4.268;2023-05-10T14:44:54;9.52;;;4.20;;
76423;SDS011;65257;52.104;4.268;2023-05-10T14:47:29;9.95;;;4.85;;
76423;SDS011;65257;52.104;4.268;2023-05-10T14:49:58;8.75;;;4.25;;
76423;SDS011;65257;52.104;4.268;2023-05-10T14:52:24;9.52;;;4.65;;
76423;SDS011;65257;52.104;4.268;2023-05-10T14:54:55;11.70;;;5.10;;
76423;SDS011;65257;52.104;4.268;2023-05-10T14:57:22;10.30;;;4.93;;
76423;SDS011;65257;52.104;4.268;2023-05-10T14:59:50;10.48;;;5.20;;
76423;SDS011;65257;52.104;4.268;2023-05-10T15:02:16;11.23;;;5.38;;
76423;SDS011;65257;52.104;4.268;2023-05-10T15:04:44;11.25;;;5.63;;
76423;SDS011;65257;52.104;4.268;2023-05-10T15:07:20;11.88;;;7.15;;
76423;SDS011;65257;52.104;4.268;2023-05-10T15:09:47;10.68;;;5.05;;
76423;SDS011;65257;52.104;4.268;2023-05-10T15:12:12;11.80;;;5.43;;
76423;SDS011;65257;52.104;4.268;2023-05-10T15:14:38;13.75;;;6.05;;
76423;SDS011;65257;52.104;4.268;2023-05-10T15:17:05;11.40;;;6.50;;
76423;SDS011;65257;52.104;4.268;2023-05-10T15:19:38;11.15;;;5.07;;
76423;SDS011;65257;52.104;4.268;2023-05-10T15:22:04;10.60;;;5.15;;
76423;SDS011;65257;52.104;4.268;2023-05-10T15:24:30;10.82;;;5.15;;
76423;SDS011;65257;52.104;4.268;2023-05-10T15:26:55;13.20;;;5.25;;
76423;SDS011;65257;52.104;4.268;2023-05-10T15:29:24;11.35;;;6.68;;
76423;SDS011;65257;52.104;4.268;2023-05-10T15:31:50;15.60;;;5.65;;
76423;SDS011;65257;52.104;4.268;2023-05-10T15:34:22;13.45;;;5.90;;
76423;SDS011;65257;52.104;4.268;2023-05-10T15:36:48;16.58;;;6.53;;